• Join FlightAware (Why Join?)
  • Login
  • US Flag 
08:57PM EDT


 

Airport Tracker/Info


-or-


 

Live Flight TrackerFlight Track Log ✈ N596SR ✈ 08-May-2013 ✈ KCRG - KLUK

Flight Track Log - Related Links

Times and Time Zones

All times are in EDT time to prevent confusion due to time zone crossing. See the N596SR flight status page for this flight to view local times or setup timezone preferences in your user account.

Time Position Orientation Groundspeed Altitude Reporting Facility
EDT Latitude Longitude Course Direction KTS MPH feet Rate Location/Type
08:49AM 30.3511 -81.5253 North 105 121 400  Level Jacksonville Center
08:50AM 30.3867 -81.5247 North 111 128 1,300 780 Climbing Jacksonville Center
08:51AM 30.4178 -81.5219 North 119 137 2,100 780 Climbing Jacksonville Center
08:52AM 30.4533 -81.5189 North 123 142 2,900 720 Climbing Jacksonville Center
08:53AM 30.4847 -81.5186 360° North 126 145 3,600 720 Climbing Jacksonville Center
08:54AM 30.5200 -81.5181 North 128 147 4,400 780 Climbing Jacksonville Center
08:55AM 30.5575 -81.5128 North 132 152 5,200 720 Climbing Jacksonville Center
08:56AM 30.5972 -81.5072 North 138 159 5,900 660 Climbing Jacksonville Center
08:57AM 30.6328 -81.5189 344° North 144 166 6,600 660 Climbing Jacksonville Center
08:58AM 30.6686 -81.5378 336° Northwest 134 154 7,300 720 Climbing Jacksonville Center
08:59AM 30.7000 -81.5589 330° Northwest 139 160 8,000 660 Climbing Jacksonville Center
09:00AM 30.7358 -81.5753 339° North 139 160 8,600 480 Climbing Jacksonville Center
09:01AM 30.7778 -81.5967 336° Northwest 147 169 9,000 180 Climbing Jacksonville Center
09:02AM 30.8133 -81.6153 336° Northwest 168 193 9,000  Level Jacksonville Center
09:03AM 30.8575 -81.6439 331° Northwest 168 193 9,000  Level Jacksonville Center
09:04AM 30.9014 -81.6531 350° North 181 208 9,000 -60 Level Jacksonville Center
09:05AM 30.9475 -81.6692 343° North 175 201 8,900 -60 Descending Jacksonville Center
09:06AM 30.9917 -81.6856 342° North 170 196 8,900  Level Jacksonville Center
09:07AM 31.0356 -81.7044 340° North 170 196 9,000  Climbing Jacksonville Center
09:08AM 31.0797 -81.7211 342° North 170 196 9,000  Level Jacksonville Center
09:09AM 31.1050 -81.7619 306° West 151 174 9,000 -60 Level Jacksonville Center
09:10AM 31.1325 -81.8003 310° West 151 174 8,900  Descending Jacksonville Center
09:11AM 31.1600 -81.8414 308° West 156 180 9,000  Climbing Jacksonville Center
09:12AM 31.1853 -81.8750 311° West 156 180 9,000 -60 Level Jacksonville Center
09:13AM 31.2169 -81.9183 311° West 161 185 8,900  Descending Jacksonville Center
09:14AM 31.2464 -81.9594 310° West 161 185 9,000  Climbing Jacksonville Center
09:15AM 31.2761 -81.9981 312° West 161 185 8,900  Descending Jacksonville Center
09:16AM 31.3014 -82.0439 303° West 161 185 9,000  Climbing Jacksonville Center
09:17AM 31.3308 -82.0803 313° West 161 185 9,000 -240 Level Jacksonville Center
09:18AM 31.3686 -82.1092 327° Northwest 161 185 8,600 -480 Descending Jacksonville Center
09:19AM 31.4189 -82.1183 351° North 167 192 8,100 -300 Descending Jacksonville Center
09:20AM 31.4689 -82.1303 348° North 181 208 8,000 -60 Descending Jacksonville Center
09:21AM 31.5108 -82.1397 349° North 181 208 8,000  Level Jacksonville Center
09:22AM 31.5567 -82.1489 350° North 176 203 8,000  Level Jacksonville Center
09:23AM 31.6092 -82.1583 351° North 176 203 8,000  Level Jacksonville Center
09:24AM 31.6572 -82.1700 348° North 176 203 8,000  Level Jacksonville Center
09:25AM 31.7031 -82.1794 350° North 171 197 8,000  Level Jacksonville Center
09:26AM 31.7450 -82.1889 349° North 165 190 8,000 -60 Level Jacksonville Center
09:27AM 31.7931 -82.2008 348° North 165 190 7,900  Descending Jacksonville Center
09:28AM 31.8431 -82.2128 349° North 165 190 8,000  Climbing Jacksonville Center
09:29AM 31.8892 -82.2197 353° North 165 190 8,000  Level Jacksonville Center
09:30AM 31.9372 -82.2317 348° North 165 190 8,000  Level Jacksonville Center
09:31AM 31.9792 -82.2411 349° North 165 190 8,000  Level Jacksonville Center
09:32AM 32.0314 -82.2531 349° North 165 190 8,000  Level Jacksonville Center
09:33AM 32.0772 -82.2625 350° North 165 190 8,000  Level Jacksonville Center
09:34AM 32.1253 -82.2719 351° North 165 190 8,000  Level Jacksonville Center
09:35AM 32.1506 -82.3086 309° West 151 174 8,000 -120 Level Jacksonville Center
09:36AM 32.1819 -82.3478 313° West 151 174 7,800 -60 Descending Jacksonville Center
09:37AM 32.2094 -82.3867 310° West 158 182 7,900  Climbing Jacksonville Center
09:38AM 32.2408 -82.4258 313° West 158 182 7,900  Level Jacksonville Center
09:39AM 32.2722 -82.4650 313° West 158 182 7,900 -60 Level Jacksonville Center
09:40AM 32.3017 -82.5042 312° West 158 182 7,800  Descending Jacksonville Center
09:43AM 32.3833 -82.6000 315° West 158 182 7,900  Climbing Atlanta TRACON
09:44AM 32.4167 -82.6333 320° Northwest 160 184 7,900  Level Atlanta TRACON
09:45AM 32.4333 -82.6833 292° West 164 189 7,900 -60 Level Atlanta TRACON
09:46AM 32.4667 -82.7167 320° Northwest 165 190 7,800  Descending Atlanta TRACON
09:47AM 32.5000 -82.7500 320° Northwest 163 188 7,900  Climbing Atlanta TRACON
09:48AM 32.5333 -82.8000 308° West 165 190 7,900  Level Atlanta TRACON
09:49AM 32.5500 -82.8167 320° Northwest 160 184 7,900  Level Atlanta TRACON
09:50AM 32.6000 -82.8500 331° Northwest 170 196 7,900  Level Atlanta TRACON
09:51AM 32.6333 -82.8500 360° North 167 192 7,900  Level Atlanta TRACON
09:52AM 32.7000 -82.8833 337° Northwest 166 191 7,900  Level Atlanta TRACON
09:53AM 32.7333 -82.9000 337° Northwest 165 190 7,900  Level Atlanta TRACON
09:54AM 32.7833 -82.9000 360° North 163 188 7,900  Level Atlanta TRACON
09:55AM 32.8167 -82.9333 320° Northwest 163 188 7,900  Level Atlanta TRACON
09:56AM 32.8667 -82.9333 360° North 164 189 7,900 -60 Level Atlanta TRACON
09:57AM 32.9167 -82.9500 344° North 165 190 7,800 -300 Descending Atlanta TRACON
09:58AM 32.9500 -82.9667 337° Northwest 169 194 7,400 -120 Descending Atlanta TRACON
10:00AM 33.0307 -82.9909 346° North  Level FlightAware Approximate
10:07AM 33.3343 -82.9732 North  Level FlightAware Approximate
10:08AM 33.3780 -82.9649 North  Level FlightAware Approximate
10:09AM 33.4218 -82.9578 North  Level FlightAware Approximate
10:10AM 33.4656 -82.9508 North  Level FlightAware Approximate
10:11AM 33.5093 -82.9437 North  Level FlightAware Approximate
10:11AM 33.5667 -82.9333 North 173 199 6,900  Level Atlanta TRACON
10:12AM 33.5531 -82.9367 North  Level FlightAware Approximate
10:12AM 33.6167 -82.9167 16° North 172 198 6,900  Level Atlanta TRACON
10:13AM 33.5969 -82.9296 North  Level FlightAware Approximate
10:13AM 33.6667 -82.9167 360° North 167 192 6,900  Level Atlanta TRACON
10:13AM 33.6783 -82.9131 14° North 172 198 6,900  Level Atlanta Center
10:14AM 33.6407 -82.9226 North  Level FlightAware Approximate
10:14AM 33.7264 -82.9047 North 172 198 6,900  Level Atlanta Center
10:15AM 33.6845 -82.9155 North  Level FlightAware Approximate
10:15AM 33.7722 -82.8967 North 172 198 6,900  Level Atlanta Center
10:16AM 33.7283 -82.9084 North  Level FlightAware Approximate
10:16AM 33.8203 -82.8886 North 172 198 6,900  Level Atlanta Center
10:17AM 33.8661 -82.8806 North 172 198 6,900  Level Atlanta Center
10:18AM 33.9139 -82.8722 North 167 192 6,900  Level Atlanta Center
10:19AM 33.9619 -82.8667 North 167 192 6,900  Level Atlanta Center
10:20AM 34.0078 -82.8586 North 167 192 6,900  Level Atlanta Center
10:21AM 34.0556 -82.8503 North 161 185 6,900  Level Atlanta Center
10:22AM 34.1036 -82.8422 North 161 185 6,900  Level Atlanta Center
10:23AM 34.1453 -82.8339 North 182 209 6,900  Level Atlanta Center
10:24AM 34.1953 -82.8233 10° North 172 198 6,900  Level Atlanta Center
10:25AM 34.2431 -82.8175 North 180 207 6,900  Level Atlanta Center
10:26AM 34.2911 -82.8092 North 180 207 6,900  Level Atlanta Center
10:27AM 34.3328 -82.8011 North 167 192 6,900  Level Atlanta Center
10:28AM 34.3828 -82.7928 North 166 191 6,900  Level Atlanta Center
10:29AM 34.4264 -82.7872 North 208 239 6,900 60 Level Atlanta Center
10:30AM 34.4664 -82.8017 343° North 176 203 7,100 240 Climbing Atlanta Center
10:31AM 34.5103 -82.8136 347° North 149 171 7,400 180 Climbing Atlanta Center
10:32AM 34.5522 -82.8256 347° North 149 171 7,500 120 Climbing Atlanta Center
10:33AM 34.5919 -82.8378 346° North 149 171 7,700 180 Climbing Atlanta Center
10:34AM 34.6336 -82.8497 347° North 149 171 7,900 60 Climbing Atlanta Center
10:35AM 34.6756 -82.8669 341° North 149 171 7,900  Level Atlanta Center
10:36AM 34.7194 -82.8739 353° North 149 171 7,900  Level Atlanta Center
10:37AM 34.7656 -82.8883 346° North 154 177 7,900  Level Atlanta Center
10:38AM 34.8094 -82.9028 345° North 159 183 7,900  Level Atlanta Center
10:39AM 34.8556 -82.9150 348° North 164 189 7,900  Level Atlanta Center
10:40AM 34.8975 -82.9269 347° North 164 189 7,900 60 Level Atlanta Center
10:41AM 34.9414 -82.9467 340° North 164 189 8,100 600 Climbing Atlanta Center
10:42AM 34.9811 -82.9539 352° North 159 183 9,100 900 Climbing Atlanta Center
10:43AM 35.0189 -82.9633 348° North 149 171 9,900 360 Climbing Atlanta Center
10:44AM 35.0606 -82.9731 349° North 143 165 9,900  Level Atlanta Center
10:45AM 35.1044 -82.9878 345° North 149 171 9,900  Level Atlanta Center
10:46AM 35.1464 -83.0025 344° North 149 171 9,900  Level Atlanta Center
10:47AM 35.1883 -83.0147 347° North 154 177 9,900  Level Atlanta Center
10:48AM 35.2300 -83.0242 350° North 160 184 9,900  Level Atlanta Center
10:49AM 35.2719 -83.0364 347° North 155 178 9,900  Level Atlanta Center
10:50AM 35.3117 -83.0511 343° North 150 173 9,900  Level Atlanta Center
10:51AM 35.3514 -83.0608 349° North 150 173 9,900  Level Atlanta Center
10:52AM 35.3911 -83.0731 346° North 150 173 9,900  Level Atlanta Center
10:53AM 35.4350 -83.0856 347° North 150 173 9,900  Level Atlanta Center
10:54AM 35.4728 -83.0978 345° North 150 173 9,900  Level Atlanta Center
10:55AM 35.5144 -83.1075 349° North 145 167 9,900  Level Atlanta Center
10:56AM 35.5542 -83.1197 346° North 145 167 9,900  Level Atlanta Center
10:57AM 35.5981 -83.1347 344° North 150 173 9,900  Level Atlanta Center
10:58AM 35.6400 -83.1444 349° North 150 173 9,900  Level Atlanta Center
10:59AM 35.6817 -83.1592 344° North 155 178 9,900 -180 Level Atlanta Center
11:00AM 35.7256 -83.1717 347° North 155 178 9,600 -300 Descending Atlanta Center
11:01AM 35.7694 -83.1864 345° North 160 184 9,300 -420 Descending Atlanta Center
11:02AM 35.8156 -83.2014 345° North 165 190 8,800 -540 Descending Atlanta Center
11:03AM 35.8636 -83.2136 348° North 165 190 8,300 -480 Descending Atlanta Center
11:04AM 35.9056 -83.2311 341° North 165 190 7,900 -240 Descending Atlanta Center
11:05AM 35.9494 -83.2436 347° North 165 190 7,900  Level Atlanta Center
11:06AM 35.9994 -83.2558 349° North 165 190 7,900  Level Atlanta Center
11:08AM 36.0781 -83.2783 347° North 161 185 7,900  Level Indianapolis Center
11:09AM 36.1222 -83.2908 347° North 162 186 7,900  Level Indianapolis Center
11:10AM 36.1519 -83.3033 341° North 163 188 7,900  Level Atlanta Center
11:11AM 36.1939 -83.3158 346° North 163 188 7,900  Level Atlanta Center
11:12AM 36.2378 -83.3283 347° North 163 188 7,900  Level Atlanta Center
11:13AM 36.2794 -83.3408 346° North 163 188 7,900  Level Atlanta Center
11:14AM 36.3233 -83.3533 347° North 163 188 7,900  Level Atlanta Center
11:15AM 36.3631 -83.3658 346° North 163 188 7,900  Level Atlanta Center
11:16AM 36.4069 -83.3783 347° North 163 188 7,900  Level Atlanta Center
11:16AM 36.4289 -83.3853 346° North 157 181 7,900  Level Indianapolis Center
11:17AM 36.4725 -83.3972 348° North 159 183 7,900  Level Indianapolis Center
11:18AM 36.5142 -83.4106 346° North 155 178 7,900  Level Indianapolis Center
11:19AM 36.5561 -83.4225 347° North 154 177 7,900  Level Indianapolis Center
11:20AM 36.6058 -83.4381 346° North 155 178 7,900  Level Indianapolis Center
11:21AM 36.6469 -83.4517 345° North 154 177 7,900  Level Indianapolis Center
11:23AM 36.6883 -83.4631 348° North 152 175 7,900  Level Indianapolis Center
11:24AM 36.7300 -83.4764 346° North 153 176 7,900  Level Indianapolis Center
11:25AM 36.7711 -83.4889 346° North 152 175 7,900  Level Indianapolis Center
11:26AM 36.8125 -83.5056 342° North 154 177 7,900  Level Indianapolis Center
11:27AM 36.8525 -83.5242 340° North 153 176 7,900  Level Indianapolis Center
11:28AM 36.9003 -83.5444 341° North 154 177 7,900  Level Indianapolis Center
11:30AM 36.9806 -83.5792 341° North 153 176 7,900  Level Indianapolis Center
11:31AM 37.0225 -83.5975 341° North 157 181 7,900  Level Indianapolis Center
11:32AM 37.0642 -83.6147 342° North 157 181 7,900  Level Indianapolis Center
11:33AM 37.1047 -83.6317 342° North 154 177 7,900  Level Indianapolis Center
11:34AM 37.1472 -83.6511 340° North 159 183 7,900  Level Indianapolis Center
11:35AM 37.1950 -83.6717 341° North 157 181 7,900  Level Indianapolis Center
11:36AM 37.2364 -83.6892 341° North 156 180 7,900  Level Indianapolis Center
11:37AM 37.2772 -83.7067 341° North 156 180 7,900  Level Indianapolis Center
11:38AM 37.3186 -83.7244 341° North 155 178 7,900  Level Indianapolis Center
11:39AM 37.3589 -83.7422 341° North 154 177 7,900  Level Indianapolis Center
11:40AM 37.4003 -83.7608 340° North 156 180 7,900  Level Indianapolis Center
11:41AM 37.4494 -83.7811 342° North 158 182 7,900  Level Indianapolis Center
11:42AM 37.4917 -83.8003 340° North 160 184 7,900  Level Indianapolis Center
11:43AM 37.5336 -83.8183 341° North 160 184 7,900  Level Indianapolis Center
11:44AM 37.5764 -83.8372 341° North 160 184 7,900  Level Indianapolis Center
11:45AM 37.6183 -83.8553 341° North 160 184 7,900  Level Indianapolis Center
11:46AM 37.6600 -83.8733 341° North 158 182 7,900  Level Indianapolis Center
11:47AM 37.7008 -83.8911 341° North 156 180 7,900  Level Indianapolis Center
11:48AM 37.7483 -83.9128 340° North 156 180 7,900  Level Indianapolis Center
11:49AM 37.7894 -83.9300 342° North 156 180 7,900  Level Indianapolis Center
11:50AM 37.8300 -83.9478 341° North 154 177 7,900  Level Indianapolis Center
11:51AM 37.8706 -83.9644 342° North 153 176 7,900 -300 Level Indianapolis Center
11:52AM 37.9131 -83.9853 339° North 160 184 7,400 -540 Descending Indianapolis Center
11:53AM 37.9583 -84.0047 341° North 168 193 6,900 -540 Descending Indianapolis Center
11:54AM 38.0036 -84.0239 342° North 171 197 6,400 -540 Descending Indianapolis Center
11:55AM 38.0561 -84.0464 341° North 171 197 5,900 -300 Descending Indianapolis Center
11:56AM 38.0983 -84.0644 341° North 165 190 5,900  Level Indianapolis Center
11:58AM 38.1383 -84.0825 340° North 158 182 5,900  Level Indianapolis Center
11:59AM 38.1778 -84.0997 341° North 154 177 6,000  Climbing Indianapolis Center
12:00PM 38.2181 -84.1178 341° North 152 175 5,900 -60 Descending Indianapolis Center
12:01PM 38.2575 -84.1364 340° North 152 175 5,900  Level Indianapolis Center
12:02PM 38.2972 -84.1533 341° North 151 174 5,900  Level Indianapolis Center
12:03PM 38.3439 -84.1747 340° North 152 175 5,900  Level Indianapolis Center
12:04PM 38.3831 -84.1917 341° North 150 173 5,900  Level Indianapolis Center
12:05PM 38.4225 -84.2089 341° North 149 171 6,000  Climbing Indianapolis Center
12:06PM 38.4608 -84.2269 340° North 148 170 6,000  Level Indianapolis Center
12:07PM 38.5011 -84.2444 341° North 150 173 6,000  Level Indianapolis Center
12:08PM 38.5403 -84.2617 341° North 150 173 6,000 -60 Level Indianapolis Center
12:09PM 38.5869 -84.2822 341° North 150 173 5,900 -60 Descending Indianapolis Center
12:10PM 38.6258 -84.2997 341° North 149 171 5,900 -240 Level Indianapolis Center
12:11PM 38.6628 -84.3322 326° Northwest 154 177 5,500 -480 Descending Indianapolis Center
12:12PM 38.7008 -84.3644 327° Northwest 164 189 5,000 -540 Descending Indianapolis Center
12:13PM 38.7397 -84.3975 326° Northwest 165 190 4,500 -360 Descending Indianapolis Center
12:14PM 38.7825 -84.4328 327° Northwest 166 191 4,300 -300 Descending Indianapolis Center
12:16PM 38.8667 -84.4833 335° Northwest 154 177 3,700 -480 Descending Cincinnati TRACON
12:17PM 38.9000 -84.4833 360° North 167 192 3,000 -720 Descending Cincinnati TRACON
12:18PM 38.9500 -84.4833 360° North 154 177 2,300 -540 Descending Cincinnati TRACON
12:19PM 38.9833 -84.4667 21° North 123 142 2,000 -240 Descending Cincinnati TRACON
12:20PM 39.0167 -84.4500 21° North 112 129 1,900 -300 Descending Cincinnati TRACON
12:21PM 39.0500 -84.4333 21° North 115 132 1,400 -480 Descending Cincinnati TRACON
12:23PM 39.1000 -84.4167 349° North  Level FlightAware Approximate
12:30PM 39.1033 -84.4186 349° North  Level Estimated